Time;durP1;ratioP1;P1;durP2;ratioP2;P2;SDS_P1;SDS_P2;PMS_P1;PMS_P2;Temp;Humidity;BMP_temperature;BMP_pressure;BME280_temperature;BME280_humidity;BME280_pressure;Samples;Min_cycle;Max_cycle;Signal;HPM_P1;HPM_P2
2023/06/21 00:01:10;;;;;;;;;;;;;;;;;;5100610;28;20046;-79
2023/06/21 00:09:05;;;;;;;;;;;;;;;;;;5067314;28;19931;-78
2023/06/21 00:11:31;;;;;;;;;;;;;;;;;;5071460;28;19968;-79
2023/06/21 00:13:57;;;;;;;;;;;;;;;;;;5071545;28;20430;-79
2023/06/21 00:16:23;;;;;;;;;;;;;;;;;;5062287;28;19947;-78
2023/06/21 00:18:49;;;;;;;;;;;;;;;;;;5066416;28;19951;-79
2023/06/21 00:21:15;;;;;;;;;;;;;;;;;;5068801;28;20397;-79
2023/06/21 00:23:41;;;;;;;;;;;;;;;;;;5065252;28;20318;-78
2023/06/21 00:26:07;;;;;;;;;;;;;;;;;;5068324;28;21559;-78
2023/06/21 00:28:33;;;;;;;;;;;;;;;;;;5068486;28;19923;-79
2023/06/21 00:30:58;;;;;;;;;;;;;;;;;;5069480;28;19917;-79
2023/06/21 00:33:25;;;;;;;;;;;;;;;;;;5068565;28;19920;-79
2023/06/21 00:35:51;;;;;;;;;;;;;;;;;;5069456;28;19940;-78
2023/06/21 00:38:17;;;;;;;;;;;;;;;;;;5069527;28;19944;-78
2023/06/21 00:40:43;;;;;;;;;;;;;;;;;;5075077;28;19970;-78
2023/06/21 00:43:09;;;;;;;;;;;;;;;;;;5067727;28;19917;-78
2023/06/21 00:45:39;;;;;;;;;;;;;;;;;;5076880;28;19927;-79
2023/06/21 00:48:05;;;;;;;;;;;;;;;;;;5062627;28;19947;-78
2023/06/21 00:50:31;;;;;;;;;;;;;;;;;;5067277;28;20460;-79
2023/06/21 00:52:57;;;;;;;;;;;;;;;;;;5068143;28;19956;-79
2023/06/21 00:55:23;;;;;;;;;;;;;;;;;;5071288;28;19917;-78
2023/06/21 00:57:49;;;;;;;;;;;;;;;;;;5074642;28;19935;-78
2023/06/21 01:00:20;;;;;;;;;;;;;;;;;;5070005;28;19974;-78
2023/06/21 01:02:46;;;;;;;;;;;;;;;;;;5068191;28;19927;-79
2023/06/21 01:05:30;;;;;;;;;;;;;;;;;;5068098;28;19983;-79
2023/06/21 01:08:00;;;;;;;;;;;;;;;;;;5066443;28;20271;-79
2023/06/21 01:10:26;;;;;;;;;;;;;;;;;;5067762;28;19956;-78
2023/06/21 01:12:52;;;;;;;;;;;;;;;;;;5067164;28;19986;-79
2023/06/21 01:15:18;;;;;;;;;;;;;;;;;;5070566;28;20436;-78
2023/06/21 01:17:44;;;;;;;;;;;;;;;;;;5071200;28;20374;-78
2023/06/21 01:20:13;;;;;;;;;;;;;;;;;;5068558;28;20342;-79
2023/06/21 01:22:40;;;;;;;;;;;;;;;;;;5070067;28;19921;-79
2023/06/21 01:25:07;;;;;;;;;;;;;;;;;;5061078;28;20364;-79
2023/06/21 01:27:34;;;;;;;;;;;;;;;;;;5069919;28;19920;-79
2023/06/21 01:30:00;;;;;;;;;;;;;;;;;;5069448;28;19966;-79
2023/06/21 01:32:27;;;;;;;;;;;;;;;;;;5084365;28;19921;-79
2023/06/21 01:34:53;;;;;;;;;;;;;;;;;;5070638;28;20738;-79
2023/06/21 01:37:19;;;;;;;;;;;;;;;;;;5074078;28;20001;-78
2023/06/21 01:39:45;;;;;;;;;;;;;;;;;;5067783;28;19936;-79
2023/06/21 01:42:11;;;;;;;;;;;;;;;;;;5072411;28;19956;-79
2023/06/21 01:44:37;;;;;;;;;;;;;;;;;;5071298;28;19917;-78
2023/06/21 01:47:03;;;;;;;;;;;;;;;;;;5073932;28;19935;-78
2023/06/21 01:49:29;;;;;;;;;;;;;;;;;;5070065;28;19959;-78
2023/06/21 01:51:55;;;;;;;;;;;;;;;;;;5074398;28;19930;-78
2023/06/21 01:54:22;;;;;;;;;;;;;;;;;;5066527;28;20007;-79
2023/06/21 01:56:48;;;;;;;;;;;;;;;;;;5071453;28;19976;-79
2023/06/21 01:59:14;;;;;;;;;;;;;;;;;;5082793;28;19957;-78
2023/06/21 02:01:40;;;;;;;;;;;;;;;;;;5069564;28;19976;-79
2023/06/21 02:04:06;;;;;;;;;;;;;;;;;;5072998;28;20004;-79
2023/06/21 02:06:32;;;;;;;;;;;;;;;;;;5072249;28;19912;-79
2023/06/21 02:08:59;;;;;;;;;;;;;;;;;;5071890;28;19947;-79
2023/06/21 02:11:25;;;;;;;;;;;;;;;;;;5072581;28;19920;-79
2023/06/21 02:13:52;;;;;;;;;;;;;;;;;;5071951;28;19984;-79
2023/06/21 02:16:17;;;;;;;;;;;;;;;;;;5071731;28;19912;-78
2023/06/21 02:18:44;;;;;;;;;;;;;;;;;;5070152;28;20012;-79
2023/06/21 02:21:11;;;;;;;;;;;;;;;;;;5068305;28;20363;-79
2023/06/21 02:23:37;;;;;;;;;;;;;;;;;;5067054;28;20057;-79
2023/06/21 02:26:03;;;;;;;;;;;;;;;;;;5070940;28;19996;-79
2023/06/21 02:28:29;;;;;;;;;;;;;;;;;;5068659;28;20000;-79
2023/06/21 02:30:55;;;;;;;;;;;;;;;;;;5070066;28;20005;-79
2023/06/21 02:33:21;;;;;;;;;;;;;;;;;;5081484;28;19913;-79
2023/06/21 02:35:47;;;;;;;;;;;;;;;;;;5077906;28;19971;-79
2023/06/21 02:38:13;;;;;;;;;;;;;;;;;;5077084;28;19913;-79
2023/06/21 02:40:39;;;;;;;;;;;;;;;;;;5075031;28;19978;-79
2023/06/21 02:43:05;;;;;;;;;;;;;;;;;;5073731;28;19913;-79
2023/06/21 02:45:31;;;;;;;;;;;;;;;;;;5096752;28;19908;-79
2023/06/21 02:47:57;;;;;;;;;;;;;;;;;;5071061;28;19920;-79
2023/06/21 02:50:23;;;;;;;;;;;;;;;;;;5072654;28;19920;-78
2023/06/21 02:52:48;;;;;;;;;;;;;;;;;;5072925;28;19927;-78
2023/06/21 02:55:16;;;;;;;;;;;;;;;;;;5070929;28;19960;-79
2023/06/21 02:57:41;;;;;;;;;;;;;;;;;;5064136;28;19921;-79
2023/06/21 03:00:31;;;;;;;;;;;;;;;;;;5071695;28;19936;-78
2023/06/21 03:02:54;;;;;;;;;;;;;;;;;;5070799;28;19900;-79
2023/06/21 03:05:20;;;;;;;;;;;;;;;;;;5067675;28;20015;-78
2023/06/21 03:07:45;;;;;;;;;;;;;;;;;;5070683;28;19948;-79
2023/06/21 03:10:12;;;;;;;;;;;;;;;;;;5070343;28;19913;-78
2023/06/21 03:12:38;;;;;;;;;;;;;;;;;;5070335;28;20013;-77
2023/06/21 03:15:04;;;;;;;;;;;;;;;;;;5067966;28;19973;-78
2023/06/21 03:17:30;;;;;;;;;;;;;;;;;;5068704;28;19920;-79
2023/06/21 03:19:57;;;;;;;;;;;;;;;;;;5067912;28;19917;-78
2023/06/21 03:22:23;;;;;;;;;;;;;;;;;;5073025;28;19928;-79
2023/06/21 03:24:49;;;;;;;;;;;;;;;;;;5069153;28;20352;-79
2023/06/21 03:27:15;;;;;;;;;;;;;;;;;;5078009;28;19916;-79
2023/06/21 03:29:41;;;;;;;;;;;;;;;;;;5084736;28;20011;-78
2023/06/21 03:32:07;;;;;;;;;;;;;;;;;;5069569;28;19948;-78
2023/06/21 03:34:33;;;;;;;;;;;;;;;;;;5066763;28;20008;-78
2023/06/21 03:36:59;;;;;;;;;;;;;;;;;;5072634;28;19935;-79
2023/06/21 03:39:25;;;;;;;;;;;;;;;;;;5069076;28;19921;-78
2023/06/21 03:41:51;;;;;;;;;;;;;;;;;;5069234;28;19920;-78
2023/06/21 03:44:17;;;;;;;;;;;;;;;;;;5071958;28;19959;-79
2023/06/21 03:46:43;;;;;;;;;;;;;;;;;;5068651;28;19947;-79
2023/06/21 03:49:09;;;;;;;;;;;;;;;;;;5067424;28;20333;-80
2023/06/21 03:51:35;;;;;;;;;;;;;;;;;;5070317;28;19955;-81
2023/06/21 03:54:01;;;;;;;;;;;;;;;;;;5070669;28;19921;-81
2023/06/21 03:56:28;;;;;;;;;;;;;;;;;;5083881;28;19948;-81
2023/06/21 03:58:53;;;;;;;;;;;;;;;;;;5067324;28;20410;-80
2023/06/21 04:01:19;;;;;;;;;;;;;;;;;;5072253;28;19955;-80
2023/06/21 04:03:45;;;;;;;;;;;;;;;;;;5070821;28;19916;-82
2023/06/21 04:06:11;;;;;;;;;;;;;;;;;;5070450;28;19927;-82
2023/06/21 04:08:37;;;;;;;;;;;;;;;;;;5073446;28;19920;-82
2023/06/21 04:11:03;;;;;;;;;;;;;;;;;;5071055;28;19920;-82
2023/06/21 04:13:29;;;;;;;;;;;;;;;;;;5071981;28;19916;-82
2023/06/21 04:15:55;;;;;;;;;;;;;;;;;;5061469;28;19932;-82
2023/06/21 04:18:21;;;;;;;;;;;;;;;;;;5068438;28;19931;-82
2023/06/21 04:20:49;;;;;;;;;;;;;;;;;;5068055;28;19964;-82
2023/06/21 04:23:15;;;;;;;;;;;;;;;;;;5070696;28;20429;-82
2023/06/21 04:25:41;;;;;;;;;;;;;;;;;;5070694;28;19916;-82
2023/06/21 04:28:10;;;;;;;;;;;;;;;;;;5069963;28;19928;-82
2023/06/21 04:30:36;;;;;;;;;;;;;;;;;;5078329;28;20343;-82
2023/06/21 04:33:02;;;;;;;;;;;;;;;;;;5073625;28;19912;-82
2023/06/21 04:35:28;;;;;;;;;;;;;;;;;;5071964;28;20363;-82
2023/06/21 04:37:54;;;;;;;;;;;;;;;;;;5072755;28;19913;-82
2023/06/21 04:40:20;;;;;;;;;;;;;;;;;;5073975;28;19919;-82
2023/06/21 04:45:31;;;;;;;;;;;;;;;;;;5064706;28;19983;-81
2023/06/21 04:47:57;;;;;;;;;;;;;;;;;;5078641;28;19928;-82
2023/06/21 04:50:23;;;;;;;;;;;;;;;;;;5072447;28;19912;-81
2023/06/21 04:52:49;;;;;;;;;;;;;;;;;;5071247;28;19927;-81
2023/06/21 04:55:18;;;;;;;;;;;;;;;;;;5070825;28;20295;-82
2023/06/21 04:57:45;;;;;;;;;;;;;;;;;;5083294;28;20330;-82
2023/06/21 05:00:11;;;;;;;;;;;;;;;;;;5070703;28;19913;-82
2023/06/21 05:02:37;;;;;;;;;;;;;;;;;;5075717;28;20011;-82
2023/06/21 05:05:02;;;;;;;;;;;;;;;;;;5074140;28;20367;-82
2023/06/21 05:07:28;;;;;;;;;;;;;;;;;;5075895;28;19912;-81
2023/06/21 05:09:54;;;;;;;;;;;;;;;;;;5057862;28;19908;-82
2023/06/21 05:12:20;;;;;;;;;;;;;;;;;;5073135;28;19966;-82
2023/06/21 05:14:46;;;;;;;;;;;;;;;;;;5065495;28;19913;-84
2023/06/21 05:17:15;;;;;;;;;;;;;;;;;;5075277;28;19912;-83
2023/06/21 05:19:41;;;;;;;;;;;;;;;;;;5070908;28;19932;-83
2023/06/21 05:22:07;;;;;;;;;;;;;;;;;;5078349;28;20433;-81
2023/06/21 05:24:33;;;;;;;;;;;;;;;;;;5077143;28;19961;-81
2023/06/21 05:26:59;;;;;;;;;;;;;;;;;;5074759;28;19995;-83
2023/06/21 05:29:25;;;;;;;;;;;;;;;;;;5074599;28;20258;-85
2023/06/21 05:31:51;;;;;;;;;;;;;;;;;;5082029;28;20275;-83
2023/06/21 05:34:17;;;;;;;;;;;;;;;;;;5087933;28;20431;-80
2023/06/21 05:36:43;;;;;;;;;;;;;;;;;;5076691;28;19927;-80
2023/06/21 05:39:09;;;;;;;;;;;;;;;;;;5075380;28;19920;-80
2023/06/21 05:41:35;;;;;;;;;;;;;;;;;;5074841;28;19928;-80
2023/06/21 05:44:01;;;;;;;;;;;;;;;;;;5075081;28;19927;-80
2023/06/21 05:46:27;;;;;;;;;;;;;;;;;;5067058;28;19916;-80
2023/06/21 05:48:53;;;;;;;;;;;;;;;;;;5072528;28;19912;-80
2023/06/21 05:51:18;;;;;;;;;;;;;;;;;;5076384;28;20005;-80
2023/06/21 05:53:44;;;;;;;;;;;;;;;;;;5072992;28;19923;-80
2023/06/21 05:56:10;;;;;;;;;;;;;;;;;;5073045;28;19915;-80
2023/06/21 05:58:36;;;;;;;;;;;;;;;;;;5074439;28;19925;-80
2023/06/21 06:01:03;;;;;;;;;;;;;;;;;;5076538;28;20019;-80
2023/06/21 06:03:28;;;;;;;;;;;;;;;;;;5076704;28;19916;-80
2023/06/21 06:05:55;;;;;;;;;;;;;;;;;;5081947;28;19916;-79
2023/06/21 06:08:21;;;;;;;;;;;;;;;;;;5078487;28;20324;-80
2023/06/21 06:10:48;;;;;;;;;;;;;;;;;;5075306;28;19913;-80
2023/06/21 06:13:14;;;;;;;;;;;;;;;;;;5076694;28;20291;-79
2023/06/21 06:15:40;;;;;;;;;;;;;;;;;;5073220;28;19920;-80
2023/06/21 06:18:06;;;;;;;;;;;;;;;;;;5079880;28;19954;-78
2023/06/21 06:20:31;;;;;;;;;;;;;;;;;;5072971;28;20335;-79
2023/06/21 06:22:57;;;;;;;;;;;;;;;;;;5072706;28;19924;-79
2023/06/21 06:25:23;;;;;;;;;;;;;;;;;;5082806;28;20394;-79
2023/06/21 06:27:49;;;;;;;;;;;;;;;;;;5075095;28;19924;-80
2023/06/21 06:30:15;;;;;;;;;;;;;;;;;;5074036;28;19916;-80
2023/06/21 06:32:41;;;;;;;;;;;;;;;;;;5074021;28;20376;-80
2023/06/21 06:35:07;;;;;;;;;;;;;;;;;;5075591;28;20340;-80
2023/06/21 06:37:33;;;;;;;;;;;;;;;;;;5074665;28;19919;-80
2023/06/21 06:39:59;;;;;;;;;;;;;;;;;;5079095;28;19916;-80
2023/06/21 06:42:25;;;;;;;;;;;;;;;;;;5074370;28;19920;-80
2023/06/21 06:44:52;;;;;;;;;;;;;;;;;;5066074;28;20455;-80
2023/06/21 06:47:18;;;;;;;;;;;;;;;;;;5075337;28;20673;-80
2023/06/21 06:49:44;;;;;;;;;;;;;;;;;;5074383;28;19920;-80
2023/06/21 06:52:11;;;;;;;;;;;;;;;;;;5074050;28;19952;-80
2023/06/21 06:54:37;;;;;;;;;;;;;;;;;;5071746;28;20378;-79
2023/06/21 06:57:03;;;;;;;;;;;;;;;;;;5075864;28;19967;-80
2023/06/21 06:59:29;;;;;;;;;;;;;;;;;;5072549;28;19927;-80
2023/06/21 07:01:55;;;;;;;;;;;;;;;;;;5075445;28;19928;-80
2023/06/21 07:04:21;;;;;;;;;;;;;;;;;;5071424;28;19931;-80
2023/06/21 07:06:47;;;;;;;;;;;;;;;;;;5074095;28;19970;-80
2023/06/21 07:09:13;;;;;;;;;;;;;;;;;;5071711;28;19923;-80
2023/06/21 07:11:39;;;;;;;;;;;;;;;;;;5072696;28;19927;-80
2023/06/21 07:14:05;;;;;;;;;;;;;;;;;;5071755;28;19923;-80
2023/06/21 07:16:31;;;;;;;;;;;;;;;;;;5071940;28;19928;-80
2023/06/21 07:18:57;;;;;;;;;;;;;;;;;;5079289;28;19916;-80
2023/06/21 07:21:25;;;;;;;;;;;;;;;;;;5070127;28;19916;-79
2023/06/21 07:23:50;;;;;;;;;;;;;;;;;;5071092;28;19912;-78
2023/06/21 07:26:16;;;;;;;;;;;;;;;;;;5072698;28;19924;-83
2023/06/21 07:28:42;;;;;;;;;;;;;;;;;;5071559;28;19935;-78
2023/06/21 07:31:08;;;;;;;;;;;;;;;;;;5074972;28;20275;-79
2023/06/21 07:33:34;;;;;;;;;;;;;;;;;;5072485;28;19916;-79
2023/06/21 07:36:00;;;;;;;;;;;;;;;;;;5073511;28;19962;-79
2023/06/21 07:38:26;;;;;;;;;;;;;;;;;;5068933;28;20528;-77
2023/06/21 07:40:52;;;;;;;;;;;;;;;;;;5056289;28;20322;-78
2023/06/21 07:43:18;;;;;;;;;;;;;;;;;;5081981;28;20340;-78
2023/06/21 07:45:44;;;;;;;;;;;;;;;;;;5084843;28;19963;-78
2023/06/21 07:48:10;;;;;;;;;;;;;;;;;;5080160;28;19920;-80
2023/06/21 07:50:36;;;;;;;;;;;;;;;;;;5088835;28;19917;-81
2023/06/21 07:53:03;;;;;;;;;;;;;;;;;;5095499;28;19912;-81
2023/06/21 07:55:29;;;;;;;;;;;;;;;;;;5095080;28;19978;-81
2023/06/21 07:57:54;;;;;;;;;;;;;;;;;;5084219;28;20620;-81
2023/06/21 08:00:20;;;;;;;;;;;;;;;;;;5090544;28;19919;-81
2023/06/21 08:02:51;;;;;;;;;;;;;;;;;;5074733;28;19970;-81
2023/06/21 08:05:17;;;;;;;;;;;;;;;;;;5075232;28;19917;-81
2023/06/21 08:07:43;;;;;;;;;;;;;;;;;;5072110;28;19923;-81
2023/06/21 08:10:09;;;;;;;;;;;;;;;;;;5092653;28;20031;-81
2023/06/21 08:12:41;;;;;;;;;;;;;;;;;;5093068;28;19923;-81
2023/06/21 08:15:07;;;;;;;;;;;;;;;;;;5086074;28;19912;-81
2023/06/21 08:17:33;;;;;;;;;;;;;;;;;;5070390;28;20233;-81
2023/06/21 08:19:58;;;;;;;;;;;;;;;;;;5064750;28;19935;-79
2023/06/21 08:22:24;;;;;;;;;;;;;;;;;;5070874;28;19963;-82
2023/06/21 08:24:50;;;;;;;;;;;;;;;;;;5081611;28;19916;-81
2023/06/21 08:27:17;;;;;;;;;;;;;;;;;;5069146;28;19908;-80
2023/06/21 08:29:44;;;;;;;;;;;;;;;;;;5070774;28;19970;-81
2023/06/21 08:32:10;;;;;;;;;;;;;;;;;;5060797;28;19932;-80
2023/06/21 08:34:36;;;;;;;;;;;;;;;;;;5071601;28;19912;-81
2023/06/21 08:37:02;;;;;;;;;;;;;;;;;;5072769;28;19913;-80
2023/06/21 08:39:28;;;;;;;;;;;;;;;;;;5079100;28;20087;-80
2023/06/21 08:41:53;;;;;;;;;;;;;;;;;;5073025;28;19959;-80
2023/06/21 08:44:19;;;;;;;;;;;;;;;;;;5076382;28;19917;-80
2023/06/21 08:46:45;;;;;;;;;;;;;;;;;;5070705;28;20328;-80
2023/06/21 08:49:13;;;;;;;;;;;;;;;;;;5075197;28;20011;-80
2023/06/21 08:51:39;;;;;;;;;;;;;;;;;;5071320;28;19939;-81
2023/06/21 08:54:05;;;;;;;;;;;;;;;;;;5054813;28;19909;-80
2023/06/21 08:56:31;;;;;;;;;;;;;;;;;;5073218;28;19967;-80
2023/06/21 08:58:57;;;;;;;;;;;;;;;;;;5064952;28;19940;-79
2023/06/21 09:01:23;;;;;;;;;;;;;;;;;;5064605;28;20024;-81
2023/06/21 09:03:49;;;;;;;;;;;;;;;;;;5075458;28;20336;-80
2023/06/21 09:06:15;;;;;;;;;;;;;;;;;;5079729;28;20328;-79
2023/06/21 09:08:41;;;;;;;;;;;;;;;;;;5083639;28;19917;-80
2023/06/21 09:11:07;;;;;;;;;;;;;;;;;;5090312;28;19919;-81
2023/06/21 09:13:34;;;;;;;;;;;;;;;;;;5086008;28;20271;-80
2023/06/21 09:16:00;;;;;;;;;;;;;;;;;;5079440;28;19999;-81
2023/06/21 09:18:26;;;;;;;;;;;;;;;;;;5075245;28;19951;-80
2023/06/21 09:20:52;;;;;;;;;;;;;;;;;;5073644;28;19916;-81
2023/06/21 09:23:18;;;;;;;;;;;;;;;;;;5075182;28;19916;-81
2023/06/21 09:25:44;;;;;;;;;;;;;;;;;;5074236;28;19932;-79
2023/06/21 09:28:10;;;;;;;;;;;;;;;;;;5081027;28;19928;-82
2023/06/21 09:30:36;;;;;;;;;;;;;;;;;;5081569;28;19935;-81
2023/06/21 09:33:02;;;;;;;;;;;;;;;;;;5081052;28;19908;-81
2023/06/21 09:35:28;;;;;;;;;;;;;;;;;;5079603;28;19912;-79
2023/06/21 09:37:54;;;;;;;;;;;;;;;;;;5082088;28;20010;-80
2023/06/21 09:40:20;;;;;;;;;;;;;;;;;;5075041;28;19940;-80
2023/06/21 09:42:46;;;;;;;;;;;;;;;;;;5078204;28;19912;-79
2023/06/21 09:45:12;;;;;;;;;;;;;;;;;;5078149;28;19912;-80
2023/06/21 09:47:38;;;;;;;;;;;;;;;;;;5080858;28;19948;-80
2023/06/21 09:50:04;;;;;;;;;;;;;;;;;;5077195;28;20023;-80
2023/06/21 09:52:30;;;;;;;;;;;;;;;;;;5076131;28;19916;-80
2023/06/21 09:54:57;;;;;;;;;;;;;;;;;;5085494;28;19927;-81
2023/06/21 09:57:23;;;;;;;;;;;;;;;;;;5078946;28;19931;-80
2023/06/21 09:59:49;;;;;;;;;;;;;;;;;;5095192;28;19912;-80
2023/06/21 10:02:15;;;;;;;;;;;;;;;;;;5078813;28;19959;-80
2023/06/21 10:04:41;;;;;;;;;;;;;;;;;;5092797;28;19931;-80
2023/06/21 10:07:07;;;;;;;;;;;;;;;;;;5077118;28;19912;-80
2023/06/21 10:09:33;;;;;;;;;;;;;;;;;;5077917;28;19913;-80
2023/06/21 10:11:59;;;;;;;;;;;;;;;;;;5078404;28;19962;-80
2023/06/21 10:14:26;;;;;;;;;;;;;;;;;;5069682;28;20020;-80
2023/06/21 10:16:52;;;;;;;;;;;;;;;;;;5076021;28;19924;-80
2023/06/21 10:19:18;;;;;;;;;;;;;;;;;;5078361;28;19991;-81
2023/06/21 10:21:44;;;;;;;;;;;;;;;;;;5092247;28;20032;-81
2023/06/21 10:24:13;;;;;;;;;;;;;;;;;;5078796;28;19912;-81
2023/06/21 10:26:39;;;;;;;;;;;;;;;;;;5077135;28;19924;-81
2023/06/21 10:29:05;;;;;;;;;;;;;;;;;;5075629;28;20264;-81
2023/06/21 10:31:31;;;;;;;;;;;;;;;;;;5078119;28;19917;-81
2023/06/21 10:33:57;;;;;;;;;;;;;;;;;;5089704;28;21014;-80
2023/06/21 10:36:23;;;;;;;;;;;;;;;;;;5064930;28;19917;-79
2023/06/21 10:38:49;;;;;;;;;;;;;;;;;;5083961;28;19912;-79
2023/06/21 10:41:15;;;;;;;;;;;;;;;;;;5076058;28;19917;-79
2023/06/21 10:43:40;;;;;;;;;;;;;;;;;;5079471;28;19916;-81
2023/06/21 10:46:06;;;;;;;;;;;;;;;;;;5073864;28;19935;-80
2023/06/21 10:48:32;;;;;;;;;;;;;;;;;;5069645;28;19923;-80
2023/06/21 10:51:01;;;;;;;;;;;;;;;;;;5077317;28;20008;-80
2023/06/21 10:53:27;;;;;;;;;;;;;;;;;;5078640;28;19919;-80
2023/06/21 10:55:53;;;;;;;;;;;;;;;;;;5083715;28;20376;-80
2023/06/21 10:58:19;;;;;;;;;;;;;;;;;;5078400;28;19920;-79
2023/06/21 11:00:47;;;;;;;;;;;;;;;;;;5079380;28;19920;-80
2023/06/21 11:03:15;;;;;;;;;;;;;;;;;;5073369;28;19939;-80
2023/06/21 11:05:41;;;;;;;;;;;;;;;;;;5075348;28;20027;-80
2023/06/21 11:08:09;;;;;;;;;;;;;;;;;;5076200;28;19996;-79
2023/06/21 11:10:35;;;;;;;;;;;;;;;;;;5073278;28;19912;-78
2023/06/21 11:13:00;;;;;;;;;;;;;;;;;;5085590;28;19919;-78
2023/06/21 11:15:26;;;;;;;;;;;;;;;;;;5076471;28;19966;-78
2023/06/21 11:17:52;;;;;;;;;;;;;;;;;;5078379;28;19913;-79
2023/06/21 11:20:18;;;;;;;;;;;;;;;;;;5075802;28;19942;-79
2023/06/21 11:22:44;;;;;;;;;;;;;;;;;;5077685;28;19957;-79
2023/06/21 11:25:10;;;;;;;;;;;;;;;;;;5085659;28;19985;-79
2023/06/21 11:27:36;;;;;;;;;;;;;;;;;;5095805;28;20345;-78
2023/06/21 11:30:09;;;;;;;;;;;;;;;;;;5069898;28;20360;-79
2023/06/21 11:32:35;;;;;;;;;;;;;;;;;;5075158;28;19939;-78
2023/06/21 11:35:03;;;;;;;;;;;;;;;;;;5072695;28;20407;-79
2023/06/21 11:37:29;;;;;;;;;;;;;;;;;;5060158;28;20383;-79
2023/06/21 11:39:55;;;;;;;;;;;;;;;;;;5064900;28;19921;-79
2023/06/21 11:42:21;;;;;;;;;;;;;;;;;;5081157;28;20314;-79
2023/06/21 11:44:47;;;;;;;;;;;;;;;;;;5079421;28;21785;-78
2023/06/21 11:47:14;;;;;;;;;;;;;;;;;;5085992;28;19928;-78
2023/06/21 11:49:40;;;;;;;;;;;;;;;;;;5070499;28;19921;-78
2023/06/21 11:52:06;;;;;;;;;;;;;;;;;;5072888;28;19919;-78
2023/06/21 11:54:32;;;;;;;;;;;;;;;;;;5076027;28;19927;-78
2023/06/21 11:56:58;;;;;;;;;;;;;;;;;;5067252;28;19942;-77
2023/06/21 11:59:24;;;;;;;;;;;;;;;;;;5077075;28;19922;-76
2023/06/21 12:01:50;;;;;;;;;;;;;;;;;;5093692;28;19951;-77
2023/06/21 12:04:16;;;;;;;;;;;;;;;;;;5088200;28;19917;-79
2023/06/21 12:06:42;;;;;;;;;;;;;;;;;;5065558;28;19900;-78
2023/06/21 12:09:08;;;;;;;;;;;;;;;;;;5060876;28;20290;-78
2023/06/21 12:11:33;;;;;;;;;;;;;;;;;;5075626;28;19916;-78
2023/06/21 12:13:59;;;;;;;;;;;;;;;;;;5070742;28;20372;-78
2023/06/21 12:16:26;;;;;;;;;;;;;;;;;;5070303;28;19916;-79
2023/06/21 12:18:52;;;;;;;;;;;;;;;;;;5084244;28;19916;-79
2023/06/21 12:21:18;;;;;;;;;;;;;;;;;;5074604;28;20364;-79
2023/06/21 12:23:44;;;;;;;;;;;;;;;;;;5071827;28;19920;-79
2023/06/21 12:26:10;;;;;;;;;;;;;;;;;;5081761;28;20003;-79
2023/06/21 12:28:36;;;;;;;;;;;;;;;;;;5075105;28;20371;-79
2023/06/21 12:31:02;;;;;;;;;;;;;;;;;;5074340;28;19919;-79
2023/06/21 12:33:28;;;;;;;;;;;;;;;;;;5073473;28;20337;-79
2023/06/21 12:35:54;;;;;;;;;;;;;;;;;;5077696;28;19916;-79
2023/06/21 12:38:20;;;;;;;;;;;;;;;;;;5087785;28;20431;-78
2023/06/21 12:40:46;;;;;;;;;;;;;;;;;;5073227;28;19960;-79
2023/06/21 12:43:12;;;;;;;;;;;;;;;;;;5072298;28;19927;-79
2023/06/21 12:45:38;;;;;;;;;;;;;;;;;;5088735;28;19924;-79
2023/06/21 12:48:03;;;;;;;;;;;;;;;;;;5060515;28;20019;-79
2023/06/21 12:50:29;;;;;;;;;;;;;;;;;;5073763;28;19912;-79
2023/06/21 12:52:55;;;;;;;;;;;;;;;;;;5072321;28;19916;-80
2023/06/21 12:55:21;;;;;;;;;;;;;;;;;;5068783;28;19932;-79
2023/06/21 12:57:48;;;;;;;;;;;;;;;;;;5067227;28;19970;-80
2023/06/21 13:00:14;;;;;;;;;;;;;;;;;;5074853;28;19932;-80
2023/06/21 13:02:40;;;;;;;;;;;;;;;;;;5069018;28;20233;-79
2023/06/21 13:05:06;;;;;;;;;;;;;;;;;;5069981;28;20319;-80
2023/06/21 13:07:32;;;;;;;;;;;;;;;;;;5068934;28;20093;-79
2023/06/21 13:09:58;;;;;;;;;;;;;;;;;;5077418;28;19916;-80
2023/06/21 13:12:25;;;;;;;;;;;;;;;;;;5075648;28;19980;-80
2023/06/21 13:14:52;;;;;;;;;;;;;;;;;;5066987;28;20485;-80
2023/06/21 13:17:18;;;;;;;;;;;;;;;;;;5065341;28;20057;-80
2023/06/21 13:19:44;;;;;;;;;;;;;;;;;;5074280;28;20272;-77
2023/06/21 13:22:09;;;;;;;;;;;;;;;;;;5066728;28;19916;-77
2023/06/21 13:24:35;;;;;;;;;;;;;;;;;;5075161;28;19927;-77
2023/06/21 13:27:01;;;;;;;;;;;;;;;;;;5086896;28;19919;-77
2023/06/21 13:29:28;;;;;;;;;;;;;;;;;;5085491;28;19924;-77
2023/06/21 13:31:54;;;;;;;;;;;;;;;;;;5078183;28;19931;-77
2023/06/21 13:34:20;;;;;;;;;;;;;;;;;;5077318;28;19917;-77
2023/06/21 13:36:46;;;;;;;;;;;;;;;;;;5077365;28;19916;-77
2023/06/21 13:39:12;;;;;;;;;;;;;;;;;;5076646;28;19955;-77
2023/06/21 13:41:38;;;;;;;;;;;;;;;;;;5077411;28;19924;-77
2023/06/21 13:44:04;;;;;;;;;;;;;;;;;;5065005;28;19943;-77
2023/06/21 13:46:30;;;;;;;;;;;;;;;;;;5076569;28;20404;-77
2023/06/21 13:48:56;;;;;;;;;;;;;;;;;;5076176;28;20368;-76
2023/06/21 13:51:22;;;;;;;;;;;;;;;;;;5072505;28;19924;-77
2023/06/21 13:53:49;;;;;;;;;;;;;;;;;;5075934;28;20008;-74
2023/06/21 13:56:15;;;;;;;;;;;;;;;;;;5077317;28;19920;-76
2023/06/21 13:58:41;;;;;;;;;;;;;;;;;;5077024;28;19944;-77
2023/06/21 14:01:07;;;;;;;;;;;;;;;;;;5069476;28;19924;-76
2023/06/21 14:03:33;;;;;;;;;;;;;;;;;;5076958;28;19912;-76
2023/06/21 14:06:00;;;;;;;;;;;;;;;;;;5079338;28;20012;-76
2023/06/21 14:08:26;;;;;;;;;;;;;;;;;;5075778;28;19932;-77
2023/06/21 14:10:52;;;;;;;;;;;;;;;;;;5078914;28;19931;-76
2023/06/21 14:13:19;;;;;;;;;;;;;;;;;;5077358;28;19922;-77
2023/06/21 14:15:45;;;;;;;;;;;;;;;;;;5075326;28;19928;-76
2023/06/21 14:18:11;;;;;;;;;;;;;;;;;;5077702;28;19935;-77
2023/06/21 14:20:37;;;;;;;;;;;;;;;;;;5072261;28;19955;-77
2023/06/21 14:23:03;;;;;;;;;;;;;;;;;;5066420;28;19920;-76
2023/06/21 14:25:29;;;;;;;;;;;;;;;;;;5077739;28;19927;-75
2023/06/21 14:27:55;;;;;;;;;;;;;;;;;;5085736;28;19916;-76
2023/06/21 14:30:21;;;;;;;;;;;;;;;;;;5076463;28;19991;-76
2023/06/21 14:32:47;;;;;;;;;;;;;;;;;;5072241;28;19931;-76
2023/06/21 14:35:13;;;;;;;;;;;;;;;;;;5078881;28;19923;-77
2023/06/21 14:37:39;;;;;;;;;;;;;;;;;;5081265;28;19939;-76
2023/06/21 14:40:04;;;;;;;;;;;;;;;;;;5081385;28;20011;-76
2023/06/21 14:42:30;;;;;;;;;;;;;;;;;;5074687;28;19916;-76
2023/06/21 14:44:56;;;;;;;;;;;;;;;;;;5074528;28;20377;-76
2023/06/21 14:47:22;;;;;;;;;;;;;;;;;;5069190;28;19920;-76
2023/06/21 14:49:51;;;;;;;;;;;;;;;;;;5074232;28;20003;-76
2023/06/21 14:52:18;;;;;;;;;;;;;;;;;;5075467;28;20356;-76
2023/06/21 14:54:44;;;;;;;;;;;;;;;;;;5093395;28;19920;-76
2023/06/21 14:57:11;;;;;;;;;;;;;;;;;;5094031;28;19916;-76
2023/06/21 14:59:37;;;;;;;;;;;;;;;;;;5078141;28;19970;-77
2023/06/21 15:02:03;;;;;;;;;;;;;;;;;;5068465;28;20372;-76
2023/06/21 15:04:29;;;;;;;;;;;;;;;;;;5075599;28;19966;-76
2023/06/21 15:06:55;;;;;;;;;;;;;;;;;;5071917;28;19916;-76
2023/06/21 15:09:21;;;;;;;;;;;;;;;;;;5071628;28;19912;-76
2023/06/21 15:11:47;;;;;;;;;;;;;;;;;;5064761;28;19923;-76
2023/06/21 15:14:13;;;;;;;;;;;;;;;;;;5072142;28;19978;-76
2023/06/21 15:16:39;;;;;;;;;;;;;;;;;;5071489;28;19928;-76
2023/06/21 15:19:05;;;;;;;;;;;;;;;;;;5071868;28;19912;-76
2023/06/21 15:21:31;;;;;;;;;;;;;;;;;;5074214;28;20595;-76
2023/06/21 15:23:57;;;;;;;;;;;;;;;;;;5074590;28;20391;-76
2023/06/21 15:26:22;;;;;;;;;;;;;;;;;;5072391;28;19963;-76
2023/06/21 15:28:48;;;;;;;;;;;;;;;;;;5072396;28;19917;-77
2023/06/21 15:31:14;;;;;;;;;;;;;;;;;;5074716;28;19912;-76
2023/06/21 15:33:41;;;;;;;;;;;;;;;;;;5071112;28;19979;-76
2023/06/21 15:36:07;;;;;;;;;;;;;;;;;;5076979;28;20577;-77
2023/06/21 15:38:33;;;;;;;;;;;;;;;;;;5074172;28;19913;-76
2023/06/21 15:40:58;;;;;;;;;;;;;;;;;;5074282;28;19923;-76
2023/06/21 15:43:24;;;;;;;;;;;;;;;;;;5080727;28;19916;-76
2023/06/21 15:45:52;;;;;;;;;;;;;;;;;;5070787;28;19923;-76
2023/06/21 15:48:18;;;;;;;;;;;;;;;;;;5069771;28;19973;-77
2023/06/21 15:50:44;;;;;;;;;;;;;;;;;;5070509;28;20368;-76
2023/06/21 15:53:11;;;;;;;;;;;;;;;;;;5071261;28;20027;-76
2023/06/21 15:55:37;;;;;;;;;;;;;;;;;;5071547;28;20360;-76
2023/06/21 15:58:03;;;;;;;;;;;;;;;;;;5082455;28;19924;-76
2023/06/21 16:00:30;;;;;;;;;;;;;;;;;;5088898;28;19943;-76
2023/06/21 16:02:56;;;;;;;;;;;;;;;;;;5077701;28;19920;-76
2023/06/21 16:05:22;;;;;;;;;;;;;;;;;;5068214;28;20319;-77
2023/06/21 16:07:48;;;;;;;;;;;;;;;;;;5074370;28;20395;-76
2023/06/21 16:10:14;;;;;;;;;;;;;;;;;;5077170;28;19912;-76
2023/06/21 16:12:40;;;;;;;;;;;;;;;;;;5083854;28;19923;-76
2023/06/21 16:15:06;;;;;;;;;;;;;;;;;;5094152;28;19920;-77
2023/06/21 16:17:32;;;;;;;;;;;;;;;;;;5096565;28;19919;-76
2023/06/21 16:19:58;;;;;;;;;;;;;;;;;;5084309;28;19931;-77
2023/06/21 16:22:24;;;;;;;;;;;;;;;;;;5075405;28;19940;-77
2023/06/21 16:24:50;;;;;;;;;;;;;;;;;;5078769;28;19919;-76
2023/06/21 16:27:16;;;;;;;;;;;;;;;;;;5080843;28;19920;-76
2023/06/21 16:29:41;;;;;;;;;;;;;;;;;;5076613;28;19920;-76
2023/06/21 16:32:07;;;;;;;;;;;;;;;;;;5072873;28;19939;-76
2023/06/21 16:34:33;;;;;;;;;;;;;;;;;;5100950;28;20306;-73
2023/06/21 16:36:59;;;;;;;;;;;;;;;;;;5095013;28;19912;-77
2023/06/21 16:39:25;;;;;;;;;;;;;;;;;;5074506;28;19970;-77
2023/06/21 16:41:51;;;;;;;;;;;;;;;;;;5077767;28;20346;-77
2023/06/21 16:44:17;;;;;;;;;;;;;;;;;;5068780;28;19916;-77
2023/06/21 16:46:43;;;;;;;;;;;;;;;;;;5066512;28;20423;-77